Currently 57°F in Anza, California, USA
57°F
75°F / 47°F
14 mph NW
0.00"
Sunday, May 3, 2026 6:15 PM PDT

Anza, California Weather Summary
Last 36 Hours

Temperature Winds Hourly Humidity Dewpoint
Time Report Norm Report Norm Max Gusts Precip. Rpt. Norm Rpt. Norm Pressure
1Sun 06:15 PM  57.0°F  65°F  14 mph NW  9 mph  21 mph  0.00"  75%  50%  49°F  45°F  29.85"
Sun 06:00 PM  58.4°F  66°F  15 mph NW  9 mph  20 mph  0.00"  72%  48%  49°F  45°F  29.84"
Sun 05:00 PM  61.5°F  69°F  10 mph NW  10 mph  21 mph  0.00"  67%  43%  50°F  45°F  29.83"
Sun 04:00 PM  61.0°F  71°F  13 mph NW  10 mph  29 mph  0.00"  68%  40%  50°F  44°F  29.86"
Sun 03:00 PM  62.3°F  71°F  17 mph NW  10 mph  29 mph  0.00"  67%  38%  51°F  44°F  29.86"
Sun 02:00 PM  64.6°F  71°F  18 mph NW  9 mph  27 mph  0.00"  63%  37%  51°F  43°F  29.86"
Sun 01:00 PM  70.3°F  71°F  13 mph NW  9 mph  22 mph  0.00"  46%  36%  48°F  42°F  29.86"
Sun 12:00 PM  74.0°F  70°F  10 mph SW  8 mph  21 mph  0.00"  25%  37%  34°F  41°F  29.88"
2Sun 11:22 AM  75.4°F  69°F  8 mph W  8 mph  17 mph  ----  23%  38%  33°F  42°F  29.88"
Sun 11:00 AM  74.2°F  69°F  8 mph W  8 mph  19 mph  0.00"  23%  39%  33°F  42°F  29.90"
Sun 10:00 AM  71.7°F  66°F  5 mph W  7 mph  13 mph  0.00"  27%  42%  34°F  42°F  29.90"
Sun 09:00 AM  68.8°F  63°F  2 mph W  7 mph  10 mph  0.00"  31%  49%  36°F  43°F  29.89"
Sun 08:00 AM  55.9°F  59°F  8 mph NW  6 mph  15 mph  0.00"  72%  59%  47°F  44°F  29.90"
Sun 07:00 AM  52.8°F  52°F  8 mph N  5 mph  12 mph  0.00"  68%  70%  42°F  42°F  29.89"
Sun 06:00 AM  47.4°F  49°F  7 mph NW  5 mph  10 mph  0.00"  55%  72%  31°F  40°F  29.87"
Sun 05:00 AM  55.4°F  49°F  7 mph NE  5 mph  12 mph  0.00"  47%  73%  35°F  40°F  29.85"
3Sun 04:13 AM  46.8°F  49°F  3 mph SE  5 mph  6 mph  ----  55%  75%  31°F  41°F  29.85"
Sun 04:00 AM  48.1°F  49°F  1 mph N  5 mph  6 mph  0.00"  53%  75%  31°F  41°F  29.85"
Sun 03:00 AM  50.0°F  49°F  5 mph SW  5 mph  8 mph  0.00"  51%  75%  32°F  41°F  29.86"
Sun 02:00 AM  51.1°F  50°F  1 mph W  5 mph  10 mph  0.00"  52%  75%  33°F  42°F  29.89"
Sun 01:00 AM  55.4°F  50°F  2 mph N  5 mph  6 mph  0.00"  44%  75%  33°F  42°F  29.91"
Sun 12:00 AM  56.3°F  51°F  4 mph NE  5 mph  6 mph  0.00"  43%  74%  33°F  43°F  29.92"
Sat 11:00 PM  58.2°F  51°F  4 mph SE  5 mph  5 mph  0.00"  40%  75%  33°F  43°F  29.92"
Sat 10:00 PM  57.4°F  53°F  2 mph NE  6 mph  6 mph  0.00"  40%  73%  32°F  44°F  29.92"
Sat 09:00 PM  61.7°F  54°F  calm  5 mph  7 mph  0.00"  34%  70%  32°F  44°F  29.90"
Sat 08:00 PM  63.4°F  57°F  4 mph N  6 mph  13 mph  0.00"  35%  64%  34°F  45°F  29.89"
Sat 07:00 PM  69.9°F  62°F  8 mph NW  8 mph  none  0.00"  30%  55%  36°F  45°F  29.88"
Sat 06:00 PM  75.2°F  66°F  12 mph NW  9 mph  none  0.00"  28%  48%  39°F  45°F  29.86"
Sat 05:00 PM  80.2°F  69°F  7 mph S  10 mph  12 mph  0.00"  13%  43%  22°F  45°F  29.86"
Sat 04:00 PM  80.2°F  70°F  9 mph SE  10 mph  18 mph  0.00"  12%  40%  22°F  44°F  29.87"
Sat 03:00 PM  79.6°F  71°F  10 mph S  10 mph  18 mph  0.00"  13%  38%  21°F  44°F  29.91"
Sat 02:00 PM  79.9°F  71°F  7 mph SE  9 mph  18 mph  0.00"  13%  37%  23°F  43°F  29.93"
Sat 01:00 PM  79.3°F  71°F  8 mph S  9 mph  19 mph  0.00"  14%  36%  24°F  42°F  29.95"
Sat 12:00 PM  77.8°F  70°F  11 mph S  9 mph  19 mph  0.00"  15%  36%  25°F  41°F  29.97"
Sat 11:00 AM  77.6°F  68°F  10 mph S  8 mph  17 mph  0.00"  14%  39%  23°F  42°F  29.99"
Sat 10:00 AM  75.7°F  66°F  10 mph SE  8 mph  16 mph  0.00"  15%  42%  22°F  42°F  29.99"
Sat 09:00 AM  74.1°F  63°F  9 mph S  7 mph  13 mph  0.00"  15%  49%  21°F  43°F  29.99"
Sat 08:00 AM  69.4°F  58°F  calm  6 mph  none  0.00"  32%  59%  37°F  43°F  29.99"
Sat 07:00 AM  54.4°F  52°F  calm  5 mph  3 mph  0.00"  56%  70%  39°F  42°F  29.98"

  1. Current weather data. No green row appears if the current weather data is also the high or low for the current day.
  2. High temperature for the current day.
  3. Low temperature for the current day.

The Anza, California weather pages are a service of WeatherCurrents. The Anza Valley is southwestern Riverside County, east of Temecula and Aguanga, south of Mount San Jacinto and west of Mount Santa Rosa.
Copyright ©Sun May 03 18:15:55 PDT 2026  WeatherCurrents. All rights reserved. - Submit questions and comments - Privacy Policy

This page automatically refreshes every 10 minutes.